Tiempo atmosférico en la estación meteorológica de Alpedrete, Madrid (924 m.)



Fecha
DESCASC
Temp. máxima en grados centígrados (hora)
DESCASC
Temp. mínima en grados centígrados (hora)
DESCASC
Temp. media en grados centígrados
DESCASC
Racha de viento máxima en m/sg (hora)
DESCASC
Velocidad máxima media en intervalos de 10 minutos(hora)
DESCASC
Precipitaciones diarias en mm
DESCASC
Precipitaciones de 00:00 a 06:00 en mm
DESCASC
Precipitaciones de 06:00 a 12:00 en mm
DESCASC
Precipitaciones de 12:00 a 18:00 en mm
DESCASC
Precipitaciones de 18:00 a 24:00 en mm
DESCASC
15-08-2019 33.6 (17:20) 19.5 (06:40) 26.5 8.06 (03:30) 4.17 (16:20) 0 0 0 0 0
14-08-2019 32 (15:30) 13.3 (00:00) 22.7 8.33 (18:30) 4.17 (18:00) 0 0 0 0 0
13-08-2019 28.4 (18:30) 11.9 (00:00) 20.1 9.72 (17:10) 5 (17:10) 0 0 0 0 0
12-08-2019 27.7 (17:40) 12.2 (00:00) 20 11.94 (15:20) 6.11 (01:00) 0 0 0 0 0
11-08-2019 27.2 (13:30) 17.1 (00:00) 22.2 12.78 (05:50) 8.06 (05:50) 0 0 0 0 0
10-08-2019 30.4 (15:20) 15.2 (00:00) 22.8 12.22 (01:00) 6.67 (01:00) 0 0 0 0 0
09-08-2019 30.1 (16:50) 19.1 (00:00) 24.6 14.17 (19:40) 8.06 (19:40) 0 0 0 0 0
08-08-2019 32.3 (17:40) 16.6 (00:00) 24.4 10.83 (16:40) 4.44 (16:40) 0 0 0 0 0
07-08-2019 26.4 (00:00) 19.7 (00:00) 23.1 9.44 (14:40) 5.28 (00:10) 0 0 0 0 0
06-08-2019 33.9 (16:30) 18.8 (00:00) 26.4 8.89 (18:40) 5 (23:59) 0 0 0 0 0
05-08-2019 35 (18:10) 19.4 (00:00) 27.2 12.22 (16:40) 4.44 (00:40) 0 0 0 0 0
04-08-2019 34.3 (18:40) 20.6 (00:00) 27.4 10 (02:50) 5.56 (03:00) 0 0 0 0 0
03-08-2019 34.7 (17:40) 21.4 (00:00) 28.1 10 (02:20) 6.39 (02:40) 0 0 0 0 0
02-08-2019 34.7 (17:10) 17.4 (00:00) 26.1 6.94 (19:00) 3.33 (13:50) 0 0 0 0 0
01-08-2019 33.2 (17:20) 18.5 (00:00) 25.9 8.06 (19:50) 5 (19:50) 0 0 0 0 0
31-07-2019 32.9 (18:40) 17.7 (00:00) 25.3 9.44 (01:10) 5.28 (01:10) 0 0 0 0 0
30-07-2019 30.4 (18:00) 12.5 (00:00) 21.4 12.78 (02:50) 7.22 (01:40) 0 0 0 0 0
29-07-2019 31.2 (16:20) 17.4 (00:00) 24.3 14.44 (19:40) 6.67 (17:30) 0 0 0 0 0
28-07-2019 29.7 (18:20) 12.8 (00:00) 21.3 7.5 (17:40) 3.61 (20:20) 0 0 0 0 0
27-07-2019 23.7 (19:10) 15.4 (00:00) 19.6 13.06 (00:40) 7.22 (06:10) 0 0 0 0 0
26-07-2019 28 (15:30) 20.1 (00:00) 24.1 12.5 (23:50) 7.22 (23:50) 0 0 0 0 0
25-07-2019 34.3 (17:30) 21.7 (00:00) 28 10.83 (15:10) 4.72 (15:10) 0 0 0 0 0
24-07-2019 35.3 (17:50) 18.7 (00:00) 27 8.06 (16:20) 4.17 (16:30) 0 0 0 0 0
23-07-2019 36.2 (16:30) 20.5 (00:00) 28.4 12.22 (20:10) 5.28 (20:10) 6.2 0 1 0.2 5
22-07-2019 36.1 (18:10) 21.3 (00:00) 28.7 9.17 (19:10) 4.17 (16:50) 0 0 0 0 0
21-07-2019 37 (19:00) 22.1 (00:00) 29.6 7.22 (00:40) 3.61 (00:30) 0 0 0 0 0
20-07-2019 36.4 (17:00) 21.2 (00:00) 28.8 8.89 (18:00) 4.17 (20:30) 0 0 0 0 0
19-07-2019 35.5 (19:00) 22.4 (00:00) 28.9 9.72 (02:10) 6.11 (02:10) 0 0 0 0 0

Gráficas

Temp. máximas Temp. mínimas Temp. medias Precipitaciones Rachas de viento máximas Velocidades máximas media en intervalos de 10 minutos

Datos horarios

Fecha y hora oficial Temperatura (ºC) Velocidad del viento (km/h) Dirección del viento Racha (km/h) Dirección de racha Precipitación (mm) Presión (hPa) Tendencia (hPa) Humedad (%)
2019-08-17 23:00:00 25.3 0 Calma 7 Norte 0 -- -- 23
2019-08-17 22:00:00 28.6 0 Calma 10 Sudoeste 0 -- -- 20
2019-08-17 21:00:00 31.3 5 Sudoeste 28 Sur 0 -- -- 19
2019-08-17 20:00:00 34.3 10 Sudoeste 24 Sudoeste 0 -- -- 16
2019-08-17 19:00:00 35 12 Sudoeste 28 Sur 0 -- -- 16
2019-08-17 18:00:00 35.7 10 Sudoeste 33 Sudoeste 0 -- -- 14
2019-08-17 17:00:00 35.9 9 Sudoeste 30 Oeste 0 -- -- 13
2019-08-17 16:00:00 35.1 9 Sudoeste 26 Sudeste 0 -- -- 18
2019-08-17 15:00:00 33.9 11 Sudoeste 28 Sur 0 -- -- 21
2019-08-17 14:00:00 32.9 11 Sur 27 Sudeste 0 -- -- 23
2019-08-17 13:00:00 32 12 Sur 24 Sudeste 0 -- -- 24
2019-08-17 12:00:00 31.2 9 Sudeste 22 Sur 0 -- -- 25
2019-08-17 11:00:00 31.7 5 Sudeste 12 Sudoeste 0 -- -- 24
2019-08-17 10:00:00 32.2 0 Calma 3 Sudeste 0 -- -- 25
2019-08-17 09:00:00 28.2 0 Calma 4 Norte 0 -- -- 29
2019-08-17 08:00:00 20.8 0 Calma 8 Noroeste 0 -- -- 40
2019-08-17 07:00:00 20.7 4 Norte 10 Nordeste 0 -- -- 39
2019-08-17 06:00:00 21.7 5 Norte 27 Noroeste 0 -- -- 38
2019-08-17 05:00:00 23.4 16 Noroeste 27 Noroeste 0 -- -- 35
2019-08-17 04:00:00 24.8 13 Noroeste 32 Noroeste 0 -- -- 29
2019-08-17 03:00:00 25.8 12 Noroeste 26 Noroeste 0 -- -- 27
2019-08-17 02:00:00 26.1 9 Noroeste 19 Noroeste 0 -- -- 27
2019-08-17 01:00:00 27.8 13 Noroeste 30 Noroeste 0 -- -- 25
2019-08-17 00:00:00 28.1 10 Noroeste 24 Noroeste 0 -- -- 27
2019-08-16 23:00:00 28.8 8 Noroeste 24 Noroeste 0 -- -- 27
2019-08-16 22:00:00 29.4 13 Noroeste 26 Noroeste 0 -- -- 27
2019-08-16 21:00:00 30.6 11 Noroeste 28 Noroeste 0 -- -- 27
2019-08-16 20:00:00 33 10 Noroeste 23 Noroeste 0 -- -- 27
2019-08-16 19:00:00 32.9 10 Sur 21 Sur 0 -- -- 26
2019-08-16 18:00:00 34.4 8 Sur 22 Sur 0 -- -- 25
2019-08-16 17:00:00 34.6 8 Sur 26 Sudoeste 0 -- -- 25
2019-08-16 16:00:00 33.5 10 Sur 23 Sur 0 -- -- 27
2019-08-16 15:00:00 32.9 9 Sudoeste 24 Noroeste 0 -- -- 28
2019-08-16 14:00:00 32.2 7 Sudoeste 21 Sur 0 -- -- 30
2019-08-16 13:00:00 31.3 6 Sudeste 18 Oeste 0 -- -- 31
2019-08-16 12:00:00 30.2 4 Sur 12 Sudeste 0 -- -- 35
2019-08-16 11:00:00 29.5 3 Sudeste 9 Sudoeste 0 -- -- 36
2019-08-16 10:00:00 26.1 4 Sudoeste 9 Sur 0 -- -- 42
2019-08-16 09:00:00 24.4 4 Este 7 Sudeste 0 -- -- 46
2019-08-16 08:00:00 20.6 2 Norte 6 Nordeste 0 -- -- 51
2019-08-16 07:00:00 19.9 4 Norte 9 Nordeste 0 -- -- 54
2019-08-16 06:00:00 20.7 0 Calma 13 Norte 0 -- -- 52
2019-08-16 05:00:00 21.2 3 Norte 21 Este 0 -- -- 51
2019-08-16 04:00:00 21.9 5 Nordeste 18 Este 0 -- -- 49
2019-08-16 03:00:00 22.2 9 Este 26 Nordeste 0 -- -- 49
2019-08-16 02:00:00 23.2 10 Este 29 Este 0 -- -- 46
2019-08-16 01:00:00 25.1 9 Este 20 Este 0 -- -- 39
2019-08-16 00:00:00 25.6 6 Noroeste 17 Oeste 0 -- -- 37
2019-08-15 23:00:00 27.2 12 Noroeste 23 Noroeste 0 -- -- 33
2019-08-15 22:00:00 27.9 11 Noroeste 21 Noroeste 0 -- -- 28
2019-08-15 21:00:00 29.9 8 Noroeste 24 Noroeste 0 -- -- 24
2019-08-15 20:00:00 31.9 13 Noroeste 23 Noroeste 0 -- -- 22
2019-08-15 19:00:00 32.6 14 Oeste 26 Oeste 0 -- -- 20
2019-08-15 18:00:00 33.4 12 Noroeste 26 Oeste 0 -- -- 21
2019-08-15 17:00:00 33.2 10 Oeste 28 Oeste 0 -- -- 24
2019-08-15 16:00:00 33.2 10 Noroeste 27 Noroeste 0 -- -- 26
2019-08-15 15:00:00 32.1 12 Noroeste 28 Oeste 0 -- -- 29
2019-08-15 14:00:00 31.3 9 Noroeste 23 Oeste 0 -- -- 31
2019-08-15 13:00:00 31.2 6 Sudoeste 19 Sur 0 -- -- 32
2019-08-15 12:00:00 30.3 6 Sudoeste 18 Oeste 0 -- -- 34
2019-08-15 11:00:00 28.2 7 Oeste 26 Oeste 0 -- -- 39
2019-08-15 10:00:00 25.1 14 Noroeste 28 Noroeste 0 -- -- 47
2019-08-15 09:00:00 24.6 7 Noroeste 16 Noroeste 0 -- -- 48
2019-08-15 08:00:00 21.4 8 Noroeste 23 Noroeste 0 -- -- 56
2019-08-15 07:00:00 20.1 5 Norte 13 Noroeste 0 -- -- 49
2019-08-15 06:00:00 21.4 3 Este 13 Noroeste 0 -- -- 39
2019-08-15 05:00:00 21.5 7 Noroeste 17 Noroeste 0 -- -- 43
2019-08-15 04:00:00 22.4 11 Noroeste 29 Noroeste 0 -- -- 41
2019-08-15 03:00:00 22.8 10 Noroeste 20 Noroeste 0 -- -- 39
2019-08-15 02:00:00 21.5 3 Norte 8 Norte 0 -- -- 34
2019-08-15 01:00:00 22.9 3 Noroeste 9 Norte 0 -- -- 30
2019-08-15 00:00:00 24.8 6 Norte 17 Norte 0 -- -- 27
2019-08-14 23:00:00 25.2 8 Noroeste 20 Norte 0 -- -- 26
2019-08-14 22:00:00 26.1 10 Norte 18 Norte 0 -- -- 25
2019-08-14 21:00:00 28.5 8 Noroeste 19 Noroeste 0 -- -- 22
2019-08-14 20:00:00 31 9 Noroeste 28 Oeste 0 -- -- 20
2019-08-14 19:00:00 31.4 11 Noroeste 30 Oeste 0 -- -- 19
2019-08-14 18:00:00 31.4 15 Noroeste 30 Noroeste 0 -- -- 19
2019-08-14 17:00:00 31.3 10 Oeste 28 Oeste 0 -- -- 19
2019-08-14 16:00:00 31.4 12 Sudoeste 25 Sur 0 -- -- 20
2019-08-14 15:00:00 30.2 10 Sur 18 Sudeste 0 -- -- 21
2019-08-14 14:00:00 29.5 7 Sudoeste 18 Sur 0 -- -- 21
2019-08-14 13:00:00 28 8 Sudoeste 19 Sudeste 0 -- -- 22
2019-08-14 12:00:00 27.2 5 Sudoeste 16 Sudoeste 0 -- -- 23
2019-08-14 11:00:00 26.3 5 Sur 13 Sur 0 -- -- 23
2019-08-14 10:00:00 26 0 Calma 4 Sudeste 0 -- -- 24
2019-08-14 09:00:00 20.9 0 Calma 4 Sudeste 0 -- -- 30
2019-08-14 08:00:00 15.8 0 Calma 8 Norte 0 -- -- 38
2019-08-14 07:00:00 13.8 2 Noroeste 8 Norte 0 -- -- 40
2019-08-14 06:00:00 13.9 0 Calma 5 Norte 0 -- -- 42
2019-08-14 05:00:00 14.7 0 Calma 6 Norte 0 -- -- 38
2019-08-14 04:00:00 15.1 6 Norte 10 Noroeste 0 -- -- 38
2019-08-14 03:00:00 16.8 0 Calma 5 Noroeste 0 -- -- 35
2019-08-14 02:00:00 17.5 0 Calma 9 Este 0 -- -- 34
2019-08-14 01:00:00 18.5 3 Nordeste 10 Noroeste 0 -- -- 32
2019-08-14 00:00:00 20.7 5 Noroeste 19 Noroeste 0 -- -- 29
2019-08-13 23:00:00 21.4 9 Noroeste 20 Noroeste 0 -- -- 29
2019-08-13 22:00:00 22.7 10 Noroeste 19 Noroeste 0 -- -- 26
2019-08-13 21:00:00 24.8 11 Noroeste 21 Noroeste 0 -- -- 22
2019-08-13 20:00:00 26.9 13 Noroeste 27 Noroeste 0 -- -- 19
2019-08-13 19:00:00 27.5 14 Noroeste 29 Noroeste 0 -- -- 17
2019-08-13 18:00:00 28 14 Noroeste 35 Oeste 0 -- -- 18
2019-08-13 17:00:00 27.3 16 Oeste 32 Oeste 0 -- -- 18
2019-08-13 16:00:00 26.9 14 Oeste 27 Noroeste 0 -- -- 19
2019-08-13 15:00:00 26.8 10 Oeste 27 Oeste 0 -- -- 18
2019-08-13 14:00:00 26 8 Oeste 27 Sur 0 -- -- 24
2019-08-13 13:00:00 25.5 6 Sudoeste 18 Sur 0 -- -- 27
2019-08-13 12:00:00 24.7 4 Oeste 14 Sudoeste 0 -- -- 30
2019-08-13 11:00:00 23.4 3 Sur 12 Este 0 -- -- 33
2019-08-13 10:00:00 19.5 9 Este 16 Este 0 -- -- 38
2019-08-13 09:00:00 19.9 0 Calma 4 Noroeste 0 -- -- 40
2019-08-13 08:00:00 13.4 0 Calma 5 Norte 0 -- -- 58
2019-08-13 07:00:00 12.4 0 Calma 7 Noroeste 0 -- -- 61
2019-08-13 06:00:00 13.5 2 Noroeste 19 Este 0 -- -- 58
2019-08-13 05:00:00 14.2 5 Nordeste 21 Este 0 -- -- 57
2019-08-13 04:00:00 15.2 10 Este 23 Este 0 -- -- 52
2019-08-13 03:00:00 15.9 12 Este 19 Este 0 -- -- 49
2019-08-13 02:00:00 17.2 6 Este 14 Este 0 -- -- 41
2019-08-13 01:00:00 18.4 2 Norte 12 Este 0 -- -- 35
2019-08-13 00:00:00 17.8 5 Noroeste 10 Noroeste 0 -- -- 34
2019-08-12 23:00:00 18.3 4 Noroeste 10 Oeste 0 -- -- 33
2019-08-12 22:00:00 19.8 3 Noroeste 21 Noroeste 0 -- -- 31
2019-08-12 21:00:00 21.4 12 Noroeste 27 Noroeste 0 -- -- 28
2019-08-12 20:00:00 24.6 14 Norte 25 Norte 0 -- -- 25
2019-08-12 19:00:00 25.6 11 Noroeste 27 Noroeste 0 -- -- 24
2019-08-12 18:00:00 26 10 Noroeste 23 Noroeste 0 -- -- 23
2019-08-12 17:00:00 26.9 8 Sur 19 Sur 0 -- -- 22
2019-08-12 16:00:00 25.6 7 Sudeste 43 Sudeste 0 -- -- 23
2019-08-12 15:00:00 25.3 6 Noroeste 39 Oeste 0 -- -- 23
2019-08-12 14:00:00 23.9 9 Noroeste 29 Noroeste 0 -- -- 26
2019-08-12 13:00:00 22.2 15 Noroeste 28 Norte 0 -- -- 24
2019-08-12 12:00:00 21.5 14 Noroeste 28 Noroeste 0 -- -- 25
2019-08-12 11:00:00 20.6 10 Noroeste 27 Noroeste 0 -- -- 29
2019-08-12 10:00:00 17.8 14 Noroeste 33 Oeste 0 -- -- 40
2019-08-12 09:00:00 14.4 17 Noroeste 37 Oeste 0 -- -- 59
2019-08-12 08:00:00 13.3 13 Noroeste 28 Noroeste 0 -- -- 60
2019-08-12 07:00:00 12.5 16 Noroeste 32 Noroeste 0 -- -- 63
2019-08-12 06:00:00 13.1 19 Noroeste 30 Noroeste 0 -- -- 59
2019-08-12 05:00:00 12.8 19 Noroeste 31 Noroeste 0 -- -- 60
2019-08-12 04:00:00 14.2 14 Noroeste 30 Oeste 0 -- -- 53
2019-08-12 03:00:00 14.9 18 Noroeste 34 Noroeste 0 -- -- 51
2019-08-12 02:00:00 15.7 18 Noroeste 35 Noroeste 0 -- -- 47
2019-08-12 01:00:00 16.9 22 Noroeste 36 Noroeste 0 -- -- 40
2019-08-12 00:00:00 18.6 24 Noroeste 42 Noroeste 0 -- -- 34
2019-08-11 23:00:00 19.7 20 Noroeste 38 Noroeste 0 -- -- 31
2019-08-11 22:00:00 20.3 11 Noroeste 31 Noroeste 0 -- -- 32
2019-08-11 21:00:00 21.6 16 Noroeste 35 Noroeste 0 -- -- 31
2019-08-11 20:00:00 23.4 15 Noroeste 37 Noroeste 0 -- -- 29
2019-08-11 19:00:00 24.8 19 Noroeste 39 Noroeste 0 -- -- 32
2019-08-11 18:00:00 24.5 18 Noroeste 32 Oeste 0 -- -- 35
2019-08-11 17:00:00 24.6 21 Noroeste 37 Noroeste 0 -- -- 37
2019-08-11 16:00:00 25.6 18 Noroeste 36 Noroeste 0 -- -- 37
2019-08-11 15:00:00 25.5 19 Noroeste 36 Oeste 0 -- -- 37
2019-08-11 14:00:00 25.1 13 Noroeste 27 Oeste 0 -- -- 36
2019-08-11 13:00:00 25.9 10 Sudoeste 26 Sur 0 -- -- 30
2019-08-11 12:00:00 25.9 10 Sudoeste 27 Sur 0 -- -- 29
2019-08-11 11:00:00 24.9 9 Sur 21 Sudeste 0 -- -- 33
2019-08-11 10:00:00 24.8 4 Sur 10 Sur 0 -- -- 34
2019-08-11 09:00:00 21.5 3 Oeste 18 Noroeste 0 -- -- 41
2019-08-11 08:00:00 17.4 9 Noroeste 19 Norte 0 -- -- 53
2019-08-11 07:00:00 17.8 5 Norte 41 Noroeste 0 -- -- 52
2019-08-11 06:00:00 18 26 Noroeste 46 Noroeste 0 -- -- 51
2019-08-11 05:00:00 18.7 21 Noroeste 38 Noroeste 0 -- -- 48
2019-08-11 04:00:00 19.1 21 Noroeste 41 Noroeste 0 -- -- 49
2019-08-11 03:00:00 20.1 16 Noroeste 28 Noroeste 0 -- -- 42
2019-08-11 02:00:00 20.5 8 Noroeste 37 Noroeste 0 -- -- 42
2019-08-11 01:00:00 21.6 15 Noroeste 25 Noroeste 0 -- -- 39
2019-08-11 00:00:00 22.1 11 Noroeste 21 Oeste 0 -- -- 38
2019-08-10 23:00:00 22.9 11 Noroeste 18 Noroeste 0 -- -- 34
2019-08-10 22:00:00 24.4 11 Oeste 21 Oeste 0 -- -- 31
2019-08-10 21:00:00 26.2 4 Oeste 19 Oeste 0 -- -- 23
2019-08-10 20:00:00 27.9 9 Sudoeste 22 Sur 0 -- -- 19
2019-08-10 19:00:00 29.7 11 Sudoeste 26 Oeste 0 -- -- 20
2019-08-10 18:00:00 27.6 10 Sur 24 Sur 0 -- -- 28
2019-08-10 17:00:00 29.2 9 Sudoeste 30 Sudeste 0 -- -- 24
2019-08-10 16:00:00 29.6 13 Sudeste 26 Sur 0 -- -- 23
2019-08-10 15:00:00 29.2 5 Oeste 14 Sudoeste 0 -- -- 28
2019-08-10 14:00:00 27.7 5 Sur 18 Sur 0 -- -- 31
2019-08-10 13:00:00 26.9 8 Oeste 28 Oeste 0 -- -- 33
2019-08-10 12:00:00 26.5 5 Sudeste 13 Sudeste 0 -- -- 38
2019-08-10 11:00:00 24.9 4 Este 12 Este 0 -- -- 43
2019-08-10 10:00:00 23.7 3 Sudoeste 9 Sudoeste 0 -- -- 46
2019-08-10 09:00:00 21.3 2 Este 5 Norte 0 -- -- 51
2019-08-10 08:00:00 17.2 0 Calma 22 Noroeste 0 -- -- 63
2019-08-10 07:00:00 15.7 14 Noroeste 26 Noroeste 0 -- -- 69
2019-08-10 06:00:00 15.8 12 Noroeste 30 Noroeste 0 -- -- 71
2019-08-10 05:00:00 16.6 16 Noroeste 35 Noroeste 0 -- -- 69
2019-08-10 04:00:00 17.9 18 Noroeste 32 Noroeste 0 -- -- 62
2019-08-10 03:00:00 18.8 17 Noroeste 35 Oeste 0 -- -- 59
2019-08-10 02:00:00 19.1 22 Noroeste 37 Noroeste 0 -- -- 61
2019-08-10 01:00:00 19.8 24 Noroeste 44 Oeste 0 -- -- 60
2019-08-10 00:00:00 20.3 13 Noroeste 28 Noroeste 0 -- -- 64
2019-08-09 23:00:00 21.1 2 Oeste 6 Oeste 0 -- -- 67
2019-08-09 22:00:00 20.8 5 Noroeste 31 Noroeste 0 -- -- 68
2019-08-09 21:00:00 20.6 17 Noroeste 36 Noroeste 0 -- -- 67
2019-08-09 20:00:00 20.6 24 Noroeste 51 Noroeste 0 -- -- 67
2019-08-09 19:00:00 21.5 25 Noroeste 49 Oeste 0 -- -- 66
2019-08-09 18:00:00 29 15 Sudoeste 35 Sur 0 -- -- 46
2019-08-09 17:00:00 29.6 14 Sudoeste 36 Sur 0 -- -- 45
2019-08-09 16:00:00 29.5 16 Sudoeste 38 Sur 0 -- -- 45
2019-08-09 15:00:00 29.2 18 Sudoeste 39 Sudoeste 0 -- -- 45
2019-08-09 14:00:00 28.5 19 Sudoeste 37 Sur 0 -- -- 47
2019-08-09 13:00:00 28.2 13 Sur 31 Sudoeste 0 -- -- 48
2019-08-09 12:00:00 26.4 10 Sur 25 Sudoeste 0 -- -- 55
2019-08-09 11:00:00 25.5 10 Sur 22 Sudoeste 0 -- -- 56
2019-08-09 10:00:00 25 5 Sur 13 Sur 0 -- -- 55
2019-08-09 09:00:00 23.7 4 Este 8 Sudeste 0 -- -- 58
2019-08-09 08:00:00 20.2 5 Sudeste 10 Sudeste 0 -- -- 68
2019-08-09 07:00:00 19.3 2 Este 10 Este 0 -- -- 67
2019-08-09 06:00:00 20.6 3 Este 13 Sudeste 0 -- -- 63
2019-08-09 05:00:00 20.8 2 Este 9 Este 0 -- -- 61
2019-08-09 04:00:00 20.9 0 Calma 5 Este 0 -- -- 55
2019-08-09 03:00:00 22.2 0 Calma 9 Sudoeste 0 -- -- 50
2019-08-09 02:00:00 22.8 2 Norte 8 Norte 0 -- -- 48
2019-08-09 01:00:00 23 4 Norte 9 Norte 0 -- -- 48
2019-08-09 00:00:00 23.9 4 Norte 9 Noroeste 0 -- -- 45
2019-08-08 23:00:00 26.1 5 Oeste 15 Sudoeste 0 -- -- 40
2019-08-08 22:00:00 26.9 6 Sudoeste 20 Sur 0 -- -- 39
2019-08-08 21:00:00 29.1 9 Sudoeste 22 Sudoeste 0 -- -- 34
2019-08-08 20:00:00 30.8 13 Sudoeste 31 Oeste 0 -- -- 30
2019-08-08 19:00:00 31.9 15 Sudoeste 33 Sudoeste 0 -- -- 29
2019-08-08 18:00:00 32.1 14 Sudoeste 34 Sur 0 -- -- 32
2019-08-08 17:00:00 32 14 Sur 39 Sur 0 -- -- 33
2019-08-08 16:00:00 31.2 11 Sur 28 Sudeste 0 -- -- 36
2019-08-08 15:00:00 30.1 11 Sudoeste 26 Sur 0 -- -- 39
2019-08-08 14:00:00 29.8 4 Sudoeste 24 Sudeste 0 -- -- 36
2019-08-08 13:00:00 28.1 6 Sudoeste 20 Sudoeste 0 -- -- 39
2019-08-08 12:00:00 27.3 7 Sudeste 17 Sur 0 -- -- 40
2019-08-08 11:00:00 27.1 6 Sudeste 16 Sudeste 0 -- -- 38
2019-08-08 10:00:00 25.8 5 Sur 10 Sudoeste 0 -- -- 37
2019-08-08 09:00:00 25.4 0 Calma 4 Nordeste 0 -- -- 39
2019-08-08 08:00:00 19.8 0 Calma 9 Norte 0 -- -- 50
2019-08-08 07:00:00 17.4 3 Este 6 Este 0 -- -- 56
2019-08-08 06:00:00 18.3 0 Calma 12 Noroeste 0 -- -- 53
2019-08-08 05:00:00 20.2 10 Oeste 16 Noroeste 0 -- -- 47
2019-08-08 04:00:00 19.6 7 Noroeste 15 Noroeste 0 -- -- 50
2019-08-08 03:00:00 19.5 8 Noroeste 15 Noroeste 0 -- -- 52
2019-08-08 02:00:00 18.9 6 Noroeste 12 Noroeste 0 -- -- 61
2019-08-08 01:00:00 20.2 5 Noroeste 10 Oeste 0 -- -- 58
2019-08-08 00:00:00 19.8 4 Noroeste 8 Noroeste 0 -- -- 62
2019-08-07 23:00:00 20.6 4 Noroeste 9 Noroeste 0 -- -- 60
2019-08-07 22:00:00 22.1 3 Noroeste 15 Noroeste 0 -- -- 54
2019-08-07 21:00:00 23.6 8 Oeste 21 Noroeste 0 -- -- 51
2019-08-07 20:00:00 24.2 9 Oeste 23 Oeste 0 -- -- 47
2019-08-07 19:00:00 24.8 8 Oeste 17 Noroeste 0 -- -- 47
2019-08-07 18:00:00 25.4 8 Oeste 20 Sudoeste 0 -- -- 44
2019-08-07 17:00:00 23.8 10 Noroeste 23 Noroeste 0 -- -- 50
2019-08-07 16:00:00 22.1 12 Noroeste 26 Noroeste 0 -- -- 52
2019-08-07 15:00:00 22.2 17 Noroeste 34 Noroeste 0 -- -- 48
2019-08-07 14:00:00 24.7 12 Noroeste 22 Noroeste 0 -- -- 38
2019-08-07 13:00:00 24 12 Oeste 24 Noroeste 0 -- -- 51
2019-08-07 12:00:00 23.4 15 Oeste 24 Oeste 0 -- -- 52
2019-08-07 11:00:00 23.7 9 Noroeste 22 Noroeste 0 -- -- 50
2019-08-07 10:00:00 22.4 15 Noroeste 34 Noroeste 0 -- -- 54
2019-08-07 09:00:00 21.7 13 Noroeste 28 Noroeste 0 -- -- 55
2019-08-07 08:00:00 22.2 12 Noroeste 24 Noroeste 0 -- -- 51
2019-08-07 07:00:00 21.1 5 Noroeste 14 Noroeste 0 -- -- 52
2019-08-07 06:00:00 21.9 9 Oeste 22 Noroeste 0 -- -- 50
2019-08-07 05:00:00 22 13 Noroeste 31 Noroeste 0 -- -- 51
2019-08-07 04:00:00 22.9 15 Noroeste 28 Noroeste 0 -- -- 44
2019-08-07 03:00:00 23.7 10 Noroeste 31 Noroeste 0 -- -- 40
2019-08-07 02:00:00 24.5 17 Noroeste 27 Oeste 0 -- -- 39
2019-08-07 01:00:00 25.5 5 Noroeste 31 Noroeste 0 -- -- 36
2019-08-07 00:00:00 26.4 18 Oeste 29 Oeste 0 -- -- 35
2019-08-06 23:00:00 27 8 Noroeste 15 Oeste 0 -- -- 31
2019-08-06 22:00:00 28.5 5 Noroeste 12 Oeste 0 -- -- 23
2019-08-06 21:00:00 29.5 5 Sudoeste 24 Sur 0 -- -- 22
2019-08-06 20:00:00 31.2 12 Sur 26 Sudoeste 0 -- -- 20
2019-08-06 19:00:00 32.2 10 Sur 32 Sudeste 0 -- -- 21
2019-08-06 18:00:00 33 12 Sur 30 Sur 0 -- -- 22
2019-08-06 17:00:00 33.4 13 Sudoeste 30 Sudoeste 0 -- -- 22
2019-08-06 16:00:00 33.2 11 Sur 27 Sur 0 -- -- 21
2019-08-06 15:00:00 32.7 11 Sur 23 Sudoeste 0 -- -- 22
2019-08-06 14:00:00 31.9 10 Sur 26 Sur 0 -- -- 22
2019-08-06 13:00:00 31.3 9 Sur 21 Sur 0 -- -- 24
2019-08-06 12:00:00 30 9 Sudoeste 22 Sudoeste 0 -- -- 24
2019-08-06 11:00:00 29.4 7 Sudoeste 17 Sur 0 -- -- 25
2019-08-06 10:00:00 29.7 5 Sudeste 10 Sudeste 0 -- -- 26
2019-08-06 09:00:00 26 5 Norte 12 Norte 0 -- -- 31
2019-08-06 08:00:00 21.7 0 Calma 5 Norte 0 -- -- 39
2019-08-06 07:00:00 19.2 0 Calma 5 Norte 0 -- -- 45
2019-08-06 06:00:00 20.7 0 Calma 9 Norte 0 -- -- 42
2019-08-06 05:00:00 22.1 5 Norte 18 Noroeste 0 -- -- 40
2019-08-06 04:00:00 23.7 6 Noroeste 17 Noroeste 0 -- -- 37
2019-08-06 03:00:00 24.5 9 Noroeste 21 Noroeste 0 -- -- 35
2019-08-06 02:00:00 25.2 13 Noroeste 31 Noroeste 0 -- -- 34
2019-08-06 01:00:00 27 17 Noroeste 31 Noroeste 0 -- -- 28
2019-08-06 00:00:00 26.7 5 Noroeste 16 Noroeste 0 -- -- 27
2019-08-05 23:00:00 25.4 5 Noroeste 8 Noroeste 0 -- -- 26
2019-08-05 22:00:00 28.4 2 Oeste 12 Oeste 0 -- -- 22
2019-08-05 21:00:00 31.9 7 Sudoeste 26 Sur 0 -- -- 18
2019-08-05 20:00:00 33.1 14 Sur 28 Sudoeste 0 -- -- 17
2019-08-05 19:00:00 34.9 9 Sur 23 Sur 0 -- -- 14
2019-08-05 18:00:00 34.9 9 Sur 27 Sur 0 -- -- 14
2019-08-05 17:00:00 34.3 13 Sur 44 Sudoeste 0 -- -- 16
2019-08-05 16:00:00 33.5 15 Sur 39 Este 0 -- -- 20
2019-08-05 15:00:00 33.4 10 Sur 29 Oeste 0 -- -- 20
2019-08-05 14:00:00 32.7 10 Sur 26 Sur 0 -- -- 21
2019-08-05 13:00:00 31.9 11 Sur 33 Sudoeste 0 -- -- 23
2019-08-05 12:00:00 30.9 9 Sur 20 Sudeste 0 -- -- 25
2019-08-05 11:00:00 31.2 3 Sudeste 12 Sudeste 0 -- -- 26
2019-08-05 10:00:00 28.9 3 Sur 6 Sudoeste 0 -- -- 29
2019-08-05 09:00:00 26 0 Calma 5 Sudeste 0 -- -- 33
2019-08-05 08:00:00 21.6 0 Calma 7 Norte 0 -- -- 40
2019-08-05 07:00:00 20 2 Noroeste 8 Norte 0 -- -- 42
2019-08-05 06:00:00 21.7 0 Calma 17 Oeste 0 -- -- 38
2019-08-05 05:00:00 24 10 Noroeste 17 Noroeste 0 -- -- 35
2019-08-05 04:00:00 24.5 6 Noroeste 21 Noroeste 0 -- -- 33
2019-08-05 03:00:00 24.8 8 Noroeste 19 Noroeste 0 -- -- 33
2019-08-05 02:00:00 25.7 11 Noroeste 21 Noroeste 0 -- -- 32
2019-08-05 01:00:00 26.2 12 Noroeste 30 Noroeste 0 -- -- 32
2019-08-05 00:00:00 26.3 5 Noroeste 10 Norte 0 -- -- 32
2019-08-04 23:00:00 26.7 2 Noroeste 6 Norte 0 -- -- 31
2019-08-04 22:00:00 28.4 3 Oeste 15 Sur 0 -- -- 29
2019-08-04 21:00:00 30.2 7 Sur 21 Sur 0 -- -- 25
2019-08-04 20:00:00 33.4 6 Sur 22 Sur 0 -- -- 21
2019-08-04 19:00:00 33.9 9 Sudoeste 24 Sur 0 -- -- 19
2019-08-04 18:00:00 34.1 10 Sur 28 Sur 0 -- -- 18
2019-08-04 17:00:00 34 10 Sur 28 Sur 0 -- -- 18
2019-08-04 16:00:00 33.4 12 Sur 34 Sur 0 -- -- 20
2019-08-04 15:00:00 32.3 13 Sur 25 Sur 0 -- -- 23
2019-08-04 14:00:00 32.5 7 Sudoeste 29 Sur 0 -- -- 20
2019-08-04 13:00:00 31.6 12 Sudoeste 27 Sur 0 -- -- 21
2019-08-04 12:00:00 31.1 8 Sur 24 Sur 0 -- -- 24
2019-08-04 11:00:00 30.3 8 Sur 19 Sudoeste 0 -- -- 24
2019-08-04 10:00:00 31.1 0 Calma 3 Sudoeste 0 -- -- 26
2019-08-04 09:00:00 26.4 0 Calma 6 Sudoeste 0 -- -- 33
2019-08-04 08:00:00 21.7 2 Noroeste 9 Norte 0 -- -- 40
2019-08-04 07:00:00 20.6 4 Norte 10 Norte 0 -- -- 42
2019-08-04 06:00:00 21.8 4 Nordeste 16 Noroeste 0 -- -- 41
2019-08-04 05:00:00 23.6 10 Noroeste 26 Noroeste 0 -- -- 38
2019-08-04 04:00:00 24.4 17 Noroeste 31 Oeste 0 -- -- 36
2019-08-04 03:00:00 25.6 20 Noroeste 36 Noroeste 0 -- -- 33
2019-08-04 02:00:00 26.8 14 Noroeste 29 Noroeste 0 -- -- 31
2019-08-04 01:00:00 26.8 12 Noroeste 26 Noroeste 0 -- -- 30
2019-08-04 00:00:00 24.4 4 Noroeste 6 Noroeste 0 -- -- 28
2019-08-03 23:00:00 24.9 5 Norte 12 Norte 0 -- -- 25
2019-08-03 22:00:00 28.2 4 Oeste 19 Sur 0 -- -- 21
2019-08-03 21:00:00 31.4 9 Sur 21 Sur 0 -- -- 18
2019-08-03 20:00:00 33 10 Sur 25 Sudeste 0 -- -- 15
2019-08-03 19:00:00 33.8 10 Sur 27 Sur 0 -- -- 15
2019-08-03 18:00:00 34.2 9 Sur 28 Sur 0 -- -- 16
2019-08-03 17:00:00 34.5 9 Sudoeste 22 Sudeste 0 -- -- 17
2019-08-03 16:00:00 33.4 11 Sur 27 Sur 0 -- -- 18
2019-08-03 15:00:00 32.7 10 Sudeste 24 Sudoeste 0 -- -- 18
2019-08-03 14:00:00 31.9 9 Sur 25 Sudeste 0 -- -- 21
2019-08-03 13:00:00 31.5 8 Sur 18 Sudoeste 0 -- -- 26
2019-08-03 12:00:00 30.4 5 Sudeste 13 Sudeste 0 -- -- 30
2019-08-03 11:00:00 29.5 4 Este 10 Norte 0 -- -- 33
2019-08-03 10:00:00 26.4 5 Este 10 Este 0 -- -- 42
2019-08-03 09:00:00 25.1 2 Sudeste 16 Este 0 -- -- 39
2019-08-03 08:00:00 23.1 0 Calma 18 Este 0 -- -- 40
2019-08-03 07:00:00 21.5 4 Nordeste 10 Nordeste 0 -- -- 42
2019-08-03 06:00:00 22.1 3 Nordeste 10 Este 0 -- -- 41
2019-08-03 05:00:00 22.9 5 Norte 18 Este 0 -- -- 39
2019-08-03 04:00:00 23.7 5 Noroeste 30 Este 0 -- -- 37
2019-08-03 03:00:00 24.4 22 Este 36 Este 0 -- -- 35
2019-08-03 02:00:00 23.6 4 Este 21 Este 0 -- -- 30
2019-08-03 01:00:00 24.4 0 Calma 18 Norte 0 -- -- 29
2019-08-03 00:00:00 25.2 8 Noroeste 19 Noroeste 0 -- -- 25
2019-08-02 23:00:00 24.5 7 Noroeste 14 Noroeste 0 -- -- 25
2019-08-02 22:00:00 27.8 4 Norte 11 Sur 0 -- -- 21
2019-08-02 21:00:00 31.8 7 Sudoeste 18 Sudoeste 0 -- -- 17
2019-08-02 20:00:00 33.9 6 Sudoeste 19 Sudoeste 0 -- -- 18
2019-08-02 19:00:00 33.9 10 Sur 25 Sur 0 -- -- 19
2019-08-02 18:00:00 34.7 5 Oeste 21 Oeste 0 -- -- 19
2019-08-02 17:00:00 34.1 9 Sudoeste 22 Sudeste 0 -- -- 21
2019-08-02 16:00:00 33.1 10 Sudeste 19 Sur 0 -- -- 23
2019-08-02 15:00:00 32.9 5 Sur 22 Sur 0 -- -- 24
2019-08-02 14:00:00 31.4 11 Este 22 Este 0 -- -- 24
2019-08-02 13:00:00 31.3 8 Sudoeste 19 Sudeste 0 -- -- 26
2019-08-02 12:00:00 29.9 6 Oeste 14 Sudoeste 0 -- -- 27
2019-08-02 11:00:00 29.3 5 Sudoeste 12 Sur 0 -- -- 31
2019-08-02 10:00:00 28 5 Nordeste 14 Este 0 -- -- 34
2019-08-02 09:00:00 25.1 0 Calma 10 Este 0 -- -- 33
2019-08-02 08:00:00 20.4 0 Calma 12 Norte 0 -- -- 39
2019-08-02 07:00:00 17.8 0 Calma 8 Norte 0 -- -- 44
2019-08-02 06:00:00 19.3 6 Norte 12 Norte 0 -- -- 40
2019-08-02 05:00:00 18.5 2 Norte 8 Noroeste 0 -- -- 43
2019-08-02 04:00:00 20.8 0 Calma 4 Noroeste 0 -- -- 38
2019-08-02 03:00:00 20.5 0 Calma 5 Norte 0 -- -- 38
2019-08-02 02:00:00 22.2 3 Noroeste 12 Noroeste 0 -- -- 35
2019-08-02 01:00:00 23 3 Norte 14 Noroeste 0 -- -- 34
2019-08-02 00:00:00 24.6 6 Noroeste 14 Noroeste 0 -- -- 31
2019-08-01 23:00:00 25.3 9 Noroeste 14 Noroeste 0 -- -- 30
2019-08-01 22:00:00 26.8 7 Noroeste 24 Noroeste 0 -- -- 28
2019-08-01 21:00:00 28.9 13 Noroeste 27 Noroeste 0 -- -- 26
2019-08-01 20:00:00 30.7 15 Noroeste 29 Noroeste 0 -- -- 24
2019-08-01 19:00:00 31 8 Sudoeste 22 Oeste 0 -- -- 22
2019-08-01 18:00:00 31.8 10 Sur 28 Oeste 0 -- -- 23
2019-08-01 17:00:00 31.4 11 Sudoeste 27 Sudoeste 0 -- -- 27
2019-08-01 16:00:00 31.6 11 Sur 28 Sudeste 0 -- -- 29
2019-08-01 15:00:00 31.1 8 Sudoeste 26 Sudoeste 0 -- -- 30
2019-08-01 14:00:00 30 8 Sudoeste 22 Sur 0 -- -- 34
2019-08-01 13:00:00 29.5 7 Sudeste 21 Sur 0 -- -- 36
2019-08-01 12:00:00 27.6 6 Sudoeste 14 Oeste 0 -- -- 42
2019-08-01 11:00:00 26 5 Este 13 Este 0 -- -- 48
2019-08-01 10:00:00 24.5 6 Este 13 Este 0 -- -- 52
2019-08-01 09:00:00 23.7 2 Sudeste 7 Este 0 -- -- 55
2019-08-01 08:00:00 18.9 0 Calma 7 Norte 0 -- -- 70
2019-08-01 07:00:00 18.8 0 Calma 6 Norte 0 -- -- 72
2019-08-01 06:00:00 19.8 0 Calma 6 Nordeste 0 -- -- 70
2019-08-01 05:00:00 20.6 0 Calma 8 Sudeste 0 -- -- 68
2019-08-01 04:00:00 21.6 6 Sudeste 12 Sudeste 0 -- -- 66
2019-08-01 03:00:00 22.2 5 Sudeste 13 Sur 0 -- -- 65
2019-08-01 02:00:00 22.9 9 Este 15 Sudeste 0 -- -- 63
2019-08-01 01:00:00 24 5 Este 15 Sudeste 0 -- -- 59
2019-08-01 00:00:00 25.1 4 Este 13 Este 0 -- -- 57
2019-07-31 23:00:00 26.2 8 Este 33 Sudeste 0 -- -- 52
2019-07-31 22:00:00 28.1 9 Sudeste 28 Este 0 -- -- 39
2019-07-31 21:00:00 29.5 4 Sudeste 15 Sudoeste 0 -- -- 31
2019-07-31 20:00:00 32.2 5 Oeste 18 Sudeste 0 -- -- 27
2019-07-31 19:00:00 32.7 6 Sudoeste 22 Sur 0 -- -- 26
2019-07-31 18:00:00 32.7 8 Sudeste 26 Sudoeste 0 -- -- 27
2019-07-31 17:00:00 31.5 8 Sur 28 Sudeste 0 -- -- 29
2019-07-31 16:00:00 30.4 9 Sudeste 25 Sudeste 0 -- -- 32
2019-07-31 15:00:00 28.8 12 Sudeste 23 Este 0 -- -- 36
2019-07-31 14:00:00 27.7 9 Sudeste 22 Sur 0 -- -- 40
2019-07-31 13:00:00 26.5 10 Sudeste 22 Sur 0 -- -- 45
2019-07-31 12:00:00 25.3 6 Sudeste 15 Sudeste 0 -- -- 46
2019-07-31 11:00:00 21.6 9 Este 18 Este 0 -- -- 53
2019-07-31 10:00:00 20.7 12 Este 20 Este 0 -- -- 49
2019-07-31 09:00:00 19.3 10 Este 21 Este 0 -- -- 49
2019-07-31 08:00:00 18.6 11 Este 20 Este 0 -- -- 49
2019-07-31 07:00:00 18.8 10 Este 19 Este 0 -- -- 46
2019-07-31 06:00:00 17.8 2 Oeste 11 Noroeste 0 -- -- 47
2019-07-31 05:00:00 18.2 2 Noroeste 14 Este 0 -- -- 45
2019-07-31 04:00:00 18.2 4 Norte 17 Este 0 -- -- 43
2019-07-31 03:00:00 19.7 9 Nordeste 24 Este 0 -- -- 39
2019-07-31 02:00:00 19.8 8 Norte 34 Este 0 -- -- 36
2019-07-31 01:00:00 20.7 18 Este 30 Este 0 -- -- 35
2019-07-31 00:00:00 19.7 7 Noroeste 13 Norte 0 -- -- 35
2019-07-30 23:00:00 21.1 6 Noroeste 17 Noroeste 0 -- -- 34
2019-07-30 22:00:00 23 13 Noroeste 24 Oeste 0 -- -- 30
2019-07-30 21:00:00 25.3 12 Noroeste 20 Noroeste 0 -- -- 28
2019-07-30 20:00:00 28.8 9 Noroeste 26 Sudoeste 0 -- -- 22
2019-07-30 19:00:00 28.8 13 Oeste 25 Oeste 0 -- -- 21
2019-07-30 18:00:00 30.4 4 Oeste 22 Oeste 0 -- -- 19
2019-07-30 17:00:00 28.4 14 Noroeste 25 Noroeste 0 -- -- 21
2019-07-30 16:00:00 29.1 6 Sur 20 Sudoeste 0 -- -- 19
2019-07-30 15:00:00 28 4 Norte 17 Oeste 0 -- -- 20
2019-07-30 14:00:00 25.9 7 Sudeste 17 Noroeste 0 -- -- 23
2019-07-30 13:00:00 25.2 6 Sudeste 15 Sur 0 -- -- 26
2019-07-30 12:00:00 24.8 5 Sur 14 Sudeste 0 -- -- 30
2019-07-30 11:00:00 21.1 6 Noroeste 19 Oeste 0 -- -- 37
2019-07-30 10:00:00 18.6 10 Noroeste 23 Noroeste 0 -- -- 43
2019-07-30 09:00:00 15.4 12 Noroeste 32 Noroeste 0 -- -- 52
2019-07-30 08:00:00 13 18 Noroeste 41 Noroeste 0 -- -- 60
2019-07-30 07:00:00 12.9 22 Noroeste 38 Noroeste 0 -- -- 59
2019-07-30 06:00:00 13.7 19 Noroeste 38 Noroeste 0 -- -- 55
2019-07-30 05:00:00 14.8 19 Noroeste 40 Noroeste 0 -- -- 50
2019-07-30 04:00:00 15.6 23 Noroeste 41 Noroeste 0 -- -- 48
2019-07-30 03:00:00 16.9 23 Noroeste 46 Oeste 0 -- -- 44
2019-07-30 02:00:00 18.5 23 Noroeste 43 Oeste 0 -- -- 39
2019-07-30 01:00:00 19.7 20 Noroeste 41 Noroeste 0 -- -- 37
2019-07-30 00:00:00 20.9 23 Noroeste 41 Noroeste 0 -- -- 34
2019-07-29 23:00:00 22 22 Noroeste 46 Oeste 0 -- -- 32
2019-07-29 22:00:00 23.4 24 Noroeste 42 Noroeste 0 -- -- 28
2019-07-29 21:00:00 25.3 20 Noroeste 40 Noroeste 0 -- -- 27
2019-07-29 20:00:00 26.9 21 Noroeste 52 Noroeste 0 -- -- 26
2019-07-29 19:00:00 27.8 22 Noroeste 40 Oeste 0 -- -- 30
2019-07-29 18:00:00 28.8 21 Noroeste 42 Noroeste 0 -- -- 32
2019-07-29 17:00:00 30 17 Noroeste 36 Oeste 0 -- -- 28
2019-07-29 16:00:00 30.4 12 Sur 34 Sur 0 -- -- 22
2019-07-29 15:00:00 29.6 15 Sur 33 Sudoeste 0 -- -- 27
2019-07-29 14:00:00 29.6 11 Sudoeste 26 Sudoeste 0 -- -- 28
2019-07-29 13:00:00 28.5 13 Sur 24 Sudeste 0 -- -- 30
2019-07-29 12:00:00 27.7 7 Sudoeste 21 Sur 0 -- -- 29
2019-07-29 11:00:00 27.5 6 Sudeste 16 Sudeste 0 -- -- 29
2019-07-29 10:00:00 28.2 2 Nordeste 6 Este 0 -- -- 27
2019-07-29 09:00:00 23.8 3 Noroeste 14 Norte 0 -- -- 35
2019-07-29 08:00:00 19.6 6 Noroeste 22 Noroeste 0 -- -- 47
2019-07-29 07:00:00 19.1 15 Noroeste 27 Noroeste 0 -- -- 42
2019-07-29 06:00:00 19.7 13 Noroeste 26 Noroeste 0 -- -- 41
2019-07-29 05:00:00 17.4 4 Noroeste 12 Norte 0 -- -- 41
2019-07-29 04:00:00 18.5 2 Norte 8 Noroeste -- -- -- 39
2019-07-29 03:00:00 18.2 0 Calma 10 Norte 0 -- -- 39
2019-07-29 02:00:00 19.3 4 Norte 7 Norte 0 -- -- 37
2019-07-29 01:00:00 19.9 0 Calma 9 Norte 0 -- -- 34
2019-07-29 00:00:00 20.4 2 Noroeste 6 Norte 0 -- -- 33
2019-07-28 23:00:00 22.3 5 Noroeste 12 Norte 0 -- -- 28
2019-07-28 22:00:00 24.3 5 Noroeste 16 Norte 0 -- -- 25
2019-07-28 21:00:00 27.4 8 Noroeste 24 Oeste 0 -- -- 23
2019-07-28 20:00:00 28.7 11 Noroeste 22 Oeste 0 -- -- 23
2019-07-28 19:00:00 29.1 8 Oeste 22 Oeste 0 -- -- 23
2019-07-28 18:00:00 29.3 7 Oeste 27 Noroeste 0 -- -- 26
2019-07-28 17:00:00 28.3 11 Noroeste 24 Noroeste 0 -- -- 25
2019-07-28 16:00:00 29 9 Sudoeste 26 Sudoeste 0 -- -- 29
2019-07-28 15:00:00 27.8 7 Sudoeste 22 Oeste 0 -- -- 32
2019-07-28 14:00:00 25.5 10 Sur 23 Sudoeste 0 -- -- 36
2019-07-28 13:00:00 24.4 8 Sur 21 Sudoeste 0 -- -- 38
2019-07-28 12:00:00 23 6 Sudoeste 14 Oeste 0 -- -- 41
2019-07-28 11:00:00 21.6 3 Oeste 10 Oeste 0 -- -- 45
2019-07-28 10:00:00 19.6 3 Sudoeste 9 Sur 0 -- -- 50
2019-07-28 09:00:00 20.2 0 Calma 9 Sudeste 0 -- -- 49
2019-07-28 08:00:00 15.2 0 Calma 12 Norte 0 -- -- 65
2019-07-28 07:00:00 13.2 6 Noroeste 10 Norte 0 -- -- 71
2019-07-28 06:00:00 13.6 3 Nordeste 20 Oeste 0 -- -- 70
2019-07-28 05:00:00 14.5 5 Noroeste 8 Noroeste 0 -- -- 64
2019-07-28 04:00:00 14.7 4 Nordeste 12 Noroeste 0 -- -- 68
2019-07-28 03:00:00 15.6 2 Oeste 15 Oeste 0 -- -- 68
2019-07-28 02:00:00 17.1 4 Noroeste 22 Noroeste 0 -- -- 64
2019-07-28 01:00:00 18 8 Oeste 13 Oeste 0 -- -- 61
2019-07-28 00:00:00 18.9 8 Noroeste 23 Norte 0 -- -- 56
2019-07-27 23:00:00 19.6 6 Noroeste 29 Noroeste 0 -- -- 51
2019-07-26 12:00:00 -- -- -- -- -- -- -- -- --
2019-07-26 11:00:00 24.4 12 Oeste 25 Noroeste 0 -- -- 48
2019-07-26 10:00:00 22.9 14 Noroeste 27 Noroeste 0 -- -- 54
2019-07-26 09:00:00 21.2 10 Noroeste 22 Noroeste 0 -- -- 61
2019-07-26 08:00:00 20.3 10 Noroeste 17 Noroeste 0 -- -- 62
2019-07-26 07:00:00 20.7 8 Oeste 23 Oeste 0 -- -- 62
2019-07-26 06:00:00 22.6 6 Noroeste 28 Noroeste 0 -- -- 47
2019-07-26 05:00:00 21.2 19 Noroeste 37 Noroeste 0 -- -- 62
2019-07-26 04:00:00 22.5 18 Noroeste 39 Oeste 0 -- -- 53
2019-07-26 03:00:00 23.9 14 Noroeste 29 Oeste 0 -- -- 47
2019-07-26 02:00:00 24.1 15 Noroeste 28 Oeste 0 -- -- 45
2019-07-26 01:00:00 25.1 20 Noroeste 33 Noroeste 0 -- -- 37
2019-07-26 00:00:00 26.6 9 Noroeste 15 Oeste 0 -- -- 29
2019-07-25 23:00:00 27.6 8 Oeste 18 Oeste 0 -- -- 28
2019-07-25 22:00:00 28.2 5 Noroeste 21 Oeste 0 -- -- 27
2019-07-25 21:00:00 30.3 8 Oeste 23 Noroeste 0 -- -- 27
2019-07-25 20:00:00 32 11 Oeste 26 Sur 0 -- -- 25
2019-07-25 19:00:00 33.3 10 Sudoeste 26 Sudoeste 0 -- -- 22
2019-07-25 18:00:00 33.9 12 Sudoeste 38 Sudoeste 0 -- -- 22
2019-07-25 17:00:00 33.4 11 Sur 30 Sudoeste 0 -- -- 24
2019-07-25 16:00:00 32.5 11 Sur 39 Sudoeste 0 -- -- 23
2019-07-25 15:00:00 33.4 13 Sur 32 Sur 0 -- -- 22
2019-07-25 14:00:00 32.2 13 Sudoeste 28 Sur 0 -- -- 25
2019-07-25 13:00:00 31.8 12 Sur 28 Sudoeste 0 -- -- 25
2019-07-25 12:00:00 31.6 9 Sudeste 17 Sudeste 0 -- -- 28
2019-07-25 11:00:00 30.8 5 Este 11 Sudeste 0 -- -- 28
2019-07-25 10:00:00 29.3 2 Sur 8 Sudeste 0 -- -- 31
2019-07-25 09:00:00 27.8 3 Sudeste 10 Este 0 -- -- 34
2019-07-25 08:00:00 23.1 0 Calma 8 Norte 0 -- -- 43
2019-07-25 07:00:00 22.6 0 Calma 18 Este 0 -- -- 41
2019-07-25 06:00:00 21.7 0 Calma 5 Este 0 -- -- 44
2019-07-25 05:00:00 22.5 2 Sudeste 11 Norte 0 -- -- 42
2019-07-25 04:00:00 23.7 7 Noroeste 14 Este 0 -- -- 38
2019-07-25 03:00:00 25.5 6 Este 11 Este 0 -- -- 33
2019-07-25 02:00:00 26.5 0 Calma 12 Este 0 -- -- 33
2019-07-25 01:00:00 28 6 Este 14 Este 0 -- -- 30
2019-07-25 00:00:00 25.4 0 Calma 8 Sudeste 0 -- -- 42
2019-07-24 23:00:00 26.7 2 Noroeste 6 Norte 0 -- -- 38
2019-07-24 22:00:00 29.8 3 Norte 6 Norte 0 -- -- 30
2019-07-24 21:00:00 33.4 3 Sur 20 Sudeste 0 -- -- 24
2019-07-24 20:00:00 34.7 6 Sur 20 Sudoeste 0 -- -- 22
2019-07-24 19:00:00 34.8 9 Sudoeste 26 Sudoeste 0 -- -- 24
2019-07-24 18:00:00 34.8 12 Sudeste 27 Sur 0 -- -- 24
2019-07-24 17:00:00 34.4 13 Sur 29 Sudeste 0 -- -- 25
2019-07-24 16:00:00 34.6 9 Sur 27 Sur 0 -- -- 25
2019-07-24 15:00:00 33.7 10 Sur 23 Sur 0 -- -- 26
2019-07-24 14:00:00 33.5 6 Sudeste 22 Sudeste 0 -- -- 26
2019-07-24 13:00:00 32.5 8 Sudeste 19 Sudeste 0 -- -- 27
2019-07-24 12:00:00 31.1 9 Este 19 Este 0 -- -- 30
2019-07-24 11:00:00 30.9 7 Este 13 Nordeste 0 -- -- 30
2019-07-24 10:00:00 28.5 2 Sudoeste 4 Sudoeste 0 -- -- 39
2019-07-24 09:00:00 24.7 0 Calma 2 Sudoeste 0 -- -- 49
2019-07-24 08:00:00 20.6 0 Calma 6 Norte 0 -- -- 61
2019-07-24 07:00:00 19.3 0 Calma 8 Noroeste 0 -- -- 62
2019-07-24 06:00:00 19 3 Norte 5 Norte 0 -- -- 64
2019-07-24 05:00:00 19.3 0 Calma 6 Noroeste 0 -- -- 66
2019-07-24 04:00:00 19.8 6 Norte 9 Noroeste 0 -- -- 63
2019-07-24 03:00:00 22.3 5 Norte 9 Norte 0 -- -- 54
2019-07-24 02:00:00 21.5 0 Calma 6 Nordeste 0 -- -- 67
2019-07-24 01:00:00 20.9 4 Norte 11 Norte 0 -- -- 65
2019-07-24 00:00:00 21.3 4 Norte 11 Norte 0.2 -- -- 67
2019-07-23 23:00:00 21.6 5 Nordeste 16 Sudoeste 0 -- -- 71
2019-07-23 22:00:00 22.4 6 Noroeste 20 Nordeste 0.8 -- -- 64
2019-07-23 21:00:00 21.7 6 Nordeste 44 Oeste 4 -- -- 75
2019-07-23 20:00:00 29.9 18 Sudoeste 38 Sudoeste 0 -- -- 36
2019-07-23 19:00:00 35.6 10 Sudeste 24 Este 0 -- -- 20
2019-07-23 18:00:00 35.7 10 Sudeste 26 Sudeste 0.2 -- -- 19
2019-07-23 17:00:00 35.3 6 Sudoeste 22 Sur 0 -- -- 20
2019-07-23 16:00:00 35.2 9 Sudeste 28 Este 0 -- -- 20
2019-07-23 15:00:00 33.9 10 Sudeste 23 Sudeste 0 -- -- 21
2019-07-23 14:00:00 32 5 Sudoeste 22 Sudeste 0 -- -- 24
2019-07-23 13:00:00 30.9 6 Sudeste 20 Este 0 -- -- 25
2019-07-23 12:00:00 29 4 Este 17 Este 0 -- -- 27
2019-07-23 11:00:00 27.1 8 Este 23 Este 0 -- -- 31
2019-07-23 10:00:00 28.3 7 Este 18 Norte 0 -- -- 30
2019-07-23 09:00:00 21.4 5 Sur 17 Sur 1 -- -- 60
2019-07-23 08:00:00 22.5 10 Oeste 27 Norte 0 -- -- 50
2019-07-23 07:00:00 22.7 12 Noroeste 22 Norte 0 -- -- 42
2019-07-23 06:00:00 23.2 5 Oeste 10 Oeste 0 -- -- 43
2019-07-23 05:00:00 23.9 4 Nordeste 13 Oeste 0 -- -- 39
2019-07-23 04:00:00 25.4 6 Este 25 Este 0 -- -- 36
2019-07-23 03:00:00 26.7 3 Este 12 Este 0 -- -- 32
2019-07-23 02:00:00 27 5 Este 22 Este 0 -- -- 31
2019-07-23 01:00:00 28.1 10 Este 20 Este 0 -- -- 28
2019-07-23 00:00:00 29.4 3 Sur 28 Sudeste 0 -- -- 20
2019-07-22 23:00:00 30.4 9 Sudeste 25 Sudeste 0 -- -- 23
2019-07-22 22:00:00 31.8 11 Sudeste 21 Este 0 -- -- 25
2019-07-22 21:00:00 33.4 10 Sudeste 24 Sudeste 0 -- -- 24
2019-07-22 20:00:00 35.1 8 Sudeste 33 Sudeste 0 -- -- 22
2019-07-22 19:00:00 35.8 10 Sudeste 33 Sudeste 0 -- -- 22
2019-07-22 18:00:00 35.8 9 Sudeste 31 Este 0 -- -- 21
2019-07-22 17:00:00 35.1 12 Este 30 Sudeste 0 -- -- 22
2019-07-22 16:00:00 34.5 10 Sudeste 29 Sudeste 0 -- -- 23
2019-07-22 15:00:00 33.9 9 Sudeste 26 Este 0 -- -- 23
2019-07-22 14:00:00 33 11 Sudeste 23 Este 0 -- -- 23
2019-07-22 13:00:00 31.8 11 Este 24 Sudeste 0 -- -- 23
2019-07-22 12:00:00 31 9 Este 21 Este 0 -- -- 24
2019-07-22 11:00:00 30.1 8 Sudeste 18 Nordeste 0 -- -- 25
2019-07-22 10:00:00 28.2 8 Este 20 Este 0 -- -- 28
2019-07-22 09:00:00 25.8 10 Este 20 Este 0 -- -- 34
2019-07-22 08:00:00 23.7 10 Este 19 Nordeste 0 -- -- 42
2019-07-22 07:00:00 21.5 0 Calma 8 Noroeste 0 -- -- 50
2019-07-22 06:00:00 22.9 0 Calma 12 Este 0 -- -- 48
2019-07-22 05:00:00 24.7 6 Este 20 Este 0 -- -- 43
2019-07-22 04:00:00 25 8 Este 14 Este 0 -- -- 42
2019-07-22 03:00:00 25.6 4 Este 19 Este 0 -- -- 43
2019-07-22 02:00:00 26.8 12 Sudeste 23 Sudeste 0 -- -- 42
2019-07-22 01:00:00 28.1 8 Sudeste 17 Sudeste 0 -- -- 41
2019-07-22 00:00:00 29.8 6 Sudeste 11 Este 0 -- -- 36
2019-07-21 23:00:00 29.8 4 Noroeste 15 Sudeste 0 -- -- 33
2019-07-21 22:00:00 31.1 12 Sudeste 21 Sudeste 0 -- -- 31
2019-07-21 21:00:00 34 5 Sudoeste 15 Sur 0 -- -- 23
2019-07-21 20:00:00 35.8 6 Sur 23 Sur 0 -- -- 23
2019-07-21 19:00:00 37 5 Sudeste 21 Sur 0 -- -- 22
2019-07-21 18:00:00 36.7 5 Sudoeste 24 Sur 0 -- -- 22
2019-07-21 17:00:00 36.2 8 Sur 21 Sudoeste 0 -- -- 23
2019-07-21 16:00:00 36.2 6 Sur 21 Sudoeste 0 -- -- 24
2019-07-21 15:00:00 35.4 6 Sudeste 19 Sur 0 -- -- 25
2019-07-21 14:00:00 34.3 8 Sudeste 21 Este 0 -- -- 27
2019-07-21 13:00:00 32.3 9 Este 22 Este 0 -- -- 31
2019-07-21 12:00:00 30.8 9 Este 18 Este 0 -- -- 33
2019-07-21 11:00:00 29.2 8 Este 18 Este 0 -- -- 36
2019-07-21 10:00:00 28.7 6 Este 12 Este 0 -- -- 36
2019-07-21 09:00:00 25.7 0 Calma 5 Sur 0 -- -- 45
2019-07-21 08:00:00 23.2 0 Calma 7 Norte 0 -- -- 49
2019-07-21 07:00:00 22.8 0 Calma 14 Este 0 -- -- 50
2019-07-21 06:00:00 23.9 8 Este 13 Este 0 -- -- 47
2019-07-21 05:00:00 24.9 6 Este 13 Sudeste 0 -- -- 45
2019-07-21 04:00:00 25.8 6 Este 20 Este 0 -- -- 42
2019-07-21 03:00:00 26.6 13 Este 22 Nordeste 0 -- -- 41
2019-07-21 02:00:00 25.4 8 Norte 18 Norte 0 -- -- 32
2019-07-21 01:00:00 27.6 12 Noroeste 26 Noroeste 0 -- -- 28
2019-07-21 00:00:00 28.3 13 Noroeste 25 Noroeste 0 -- -- 27
2019-07-20 23:00:00 29.1 12 Noroeste 21 Noroeste 0 -- -- 29
2019-07-20 22:00:00 30.1 9 Noroeste 20 Noroeste 0 -- -- 29
2019-07-20 21:00:00 32.4 13 Noroeste 26 Noroeste 0 -- -- 27
2019-07-20 20:00:00 35.7 6 Sudoeste 19 Sur 0 -- -- 21
2019-07-20 19:00:00 34.9 6 Sudoeste 27 Sudoeste 0 -- -- 23
2019-07-20 18:00:00 34.6 12 Sudoeste 32 Oeste 0 -- -- 23
2019-07-20 17:00:00 36.4 9 Sur 25 Sudoeste 0 -- -- 22
2019-07-20 16:00:00 35.3 9 Sudeste 28 Sudoeste 0 -- -- 24
2019-07-20 15:00:00 34.8 9 Sur 20 Sur 0 -- -- 24
2019-07-20 14:00:00 32.9 11 Sur 22 Sudeste 0 -- -- 27
2019-07-20 13:00:00 32.5 7 Este 18 Sudeste 0 -- -- 29
2019-07-20 12:00:00 31.7 3 Sudeste 15 Sur 0 -- -- 29
2019-07-20 11:00:00 28.7 9 Este 19 Este 0 -- -- 32
2019-07-20 10:00:00 28.3 5 Este 13 Este 0 -- -- 33
2019-07-20 09:00:00 27.3 4 Este 9 Este 0 -- -- 35
2019-07-20 08:00:00 22.9 0 Calma 6 Sudoeste 0 -- -- 39
2019-07-20 07:00:00 23.1 3 Este 13 Este 0 -- -- 37
2019-07-20 06:00:00 21.5 3 Norte 7 Norte 0 -- -- 42
2019-07-20 05:00:00 23.5 3 Sudeste 18 Noroeste 0 -- -- 39
2019-07-20 04:00:00 25 12 Noroeste 23 Noroeste 0 -- -- 37
2019-07-20 03:00:00 25 3 Noroeste 11 Noroeste 0 -- -- 34
2019-07-20 02:00:00 26.3 0 Calma 12 Sudoeste 0 -- -- 32
2019-07-20 01:00:00 25.1 5 Noroeste 8 Noroeste 0 -- -- 33
2019-07-20 00:00:00 26.3 5 Noroeste 9 Norte 0 -- -- 31
2019-07-19 23:00:00 27.1 4 Norte 9 Norte 0 -- -- 30
2019-07-19 22:00:00 28.6 4 Noroeste 9 Noroeste 0 -- -- 27
2019-07-19 21:00:00 32 5 Oeste 19 Sudoeste 0 -- -- 22
2019-07-19 20:00:00 34.9 6 Sudoeste 23 Sudoeste 0 -- -- 19
2019-07-19 19:00:00 35.5 8 Sudoeste 32 Sudoeste 0 -- -- 19
2019-07-19 18:00:00 34.6 7 Sudoeste 31 Sudoeste 0 -- -- 22
2019-07-19 17:00:00 34.8 12 Sudoeste 29 Sudeste 0 -- -- 23
2019-07-19 16:00:00 33.8 12 Sudoeste 27 Sudeste 0 -- -- 24
2019-07-19 15:00:00 33 15 Sur 31 Sur 0 -- -- 27
2019-07-19 14:00:00 33.1 10 Sudoeste 22 Sudoeste 0 -- -- 28
2019-07-19 13:00:00 32.6 5 Oeste 18 Sudoeste 0 -- -- 30
2019-07-19 12:00:00 31.2 5 Sudeste 12 Sudeste 0 -- -- 33
2019-07-19 11:00:00 28.8 6 Nordeste 13 Nordeste 0 -- -- 37
2019-07-19 10:00:00 27.1 7 Este 17 Nordeste 0 -- -- 39
2019-07-19 09:00:00 25.2 7 Nordeste 19 Este 0 -- -- 40
2019-07-19 08:00:00 23.1 10 Este 17 Nordeste 0 -- -- 42
2019-07-19 07:00:00 22.7 3 Este 16 Noroeste 0 -- -- 44
2019-07-19 06:00:00 23.1 4 Nordeste 22 Norte 0 -- -- 42
2019-07-19 05:00:00 23 2 Oeste 8 Noroeste 0 -- -- 40
2019-07-19 04:00:00 23.8 6 Noroeste 23 Sudeste 0 -- -- 39
2019-07-19 03:00:00 24.2 5 Nordeste 35 Este 0 -- -- 37
2019-07-19 02:00:00 24.8 17 Este 32 Este 0 -- -- 35
2019-07-19 01:00:00 26.8 10 Este 17 Este 0 -- -- 30
2019-07-19 00:00:00 26.4 6 Noroeste 13 Noroeste 0 -- -- 32